sensor_id;sensor_type;location;lat;lon;timestamp;P1;durP1;ratioP1;P2;durP2;ratioP2
8399;SDS011;4237;47.030;15.396;2024-03-22T00:00:38;4.37;;;2.13;;
8399;SDS011;4237;47.030;15.396;2024-03-22T00:03:07;3.67;;;2.13;;
8399;SDS011;4237;47.030;15.396;2024-03-22T00:05:35;4.40;;;2.33;;
8399;SDS011;4237;47.030;15.396;2024-03-22T00:08:04;3.20;;;1.50;;
8399;SDS011;4237;47.030;15.396;2024-03-22T00:10:33;3.30;;;1.60;;
8399;SDS011;4237;47.030;15.396;2024-03-22T00:13:01;2.27;;;1.60;;
8399;SDS011;4237;47.030;15.396;2024-03-22T00:15:30;2.00;;;1.50;;
8399;SDS011;4237;47.030;15.396;2024-03-22T00:17:58;1.70;;;1.60;;
8399;SDS011;4237;47.030;15.396;2024-03-22T00:20:27;1.50;;;1.40;;
8399;SDS011;4237;47.030;15.396;2024-03-22T00:22:55;1.70;;;1.60;;
8399;SDS011;4237;47.030;15.396;2024-03-22T00:25:24;2.10;;;1.50;;
8399;SDS011;4237;47.030;15.396;2024-03-22T00:27:54;3.03;;;1.60;;
8399;SDS011;4237;47.030;15.396;2024-03-22T00:30:22;2.20;;;1.67;;
8399;SDS011;4237;47.030;15.396;2024-03-22T00:32:51;1.77;;;1.67;;
8399;SDS011;4237;47.030;15.396;2024-03-22T00:35:19;2.30;;;1.70;;
8399;SDS011;4237;47.030;15.396;2024-03-22T00:37:48;3.47;;;1.97;;
8399;SDS011;4237;47.030;15.396;2024-03-22T00:40:17;2.70;;;1.50;;
8399;SDS011;4237;47.030;15.396;2024-03-22T00:42:47;2.00;;;1.80;;
8399;SDS011;4237;47.030;15.396;2024-03-22T00:45:15;3.77;;;1.53;;
8399;SDS011;4237;47.030;15.396;2024-03-22T00:47:44;2.63;;;1.60;;
8399;SDS011;4237;47.030;15.396;2024-03-22T00:50:12;1.43;;;1.30;;
8399;SDS011;4237;47.030;15.396;2024-03-22T00:52:41;1.40;;;1.30;;
8399;SDS011;4237;47.030;15.396;2024-03-22T00:55:09;2.40;;;1.40;;
8399;SDS011;4237;47.030;15.396;2024-03-22T00:57:38;1.70;;;1.43;;
8399;SDS011;4237;47.030;15.396;2024-03-22T01:00:07;1.80;;;1.67;;
8399;SDS011;4237;47.030;15.396;2024-03-22T01:02:36;2.20;;;2.00;;
8399;SDS011;4237;47.030;15.396;2024-03-22T01:05:05;2.50;;;1.50;;
8399;SDS011;4237;47.030;15.396;2024-03-22T01:07:33;2.00;;;1.90;;
8399;SDS011;4237;47.030;15.396;2024-03-22T01:10:03;1.90;;;1.80;;
8399;SDS011;4237;47.030;15.396;2024-03-22T01:12:32;2.70;;;1.93;;
8399;SDS011;4237;47.030;15.396;2024-03-22T01:15:01;2.10;;;1.90;;
8399;SDS011;4237;47.030;15.396;2024-03-22T01:17:31;2.63;;;1.63;;
8399;SDS011;4237;47.030;15.396;2024-03-22T01:19:59;2.53;;;1.60;;
8399;SDS011;4237;47.030;15.396;2024-03-22T01:22:28;1.70;;;1.60;;
8399;SDS011;4237;47.030;15.396;2024-03-22T01:24:56;2.50;;;1.63;;
8399;SDS011;4237;47.030;15.396;2024-03-22T01:27:25;2.13;;;1.57;;
8399;SDS011;4237;47.030;15.396;2024-03-22T01:29:54;2.03;;;1.83;;
8399;SDS011;4237;47.030;15.396;2024-03-22T01:32:22;2.37;;;1.67;;
8399;SDS011;4237;47.030;15.396;2024-03-22T01:34:51;1.63;;;1.50;;
8399;SDS011;4237;47.030;15.396;2024-03-22T01:37:19;2.80;;;1.70;;
8399;SDS011;4237;47.030;15.396;2024-03-22T01:39:48;2.30;;;1.70;;
8399;SDS011;4237;47.030;15.396;2024-03-22T01:42:16;1.90;;;1.80;;
8399;SDS011;4237;47.030;15.396;2024-03-22T01:44:45;1.97;;;1.77;;
8399;SDS011;4237;47.030;15.396;2024-03-22T01:47:14;1.77;;;1.67;;
8399;SDS011;4237;47.030;15.396;2024-03-22T01:49:43;2.50;;;2.00;;
8399;SDS011;4237;47.030;15.396;2024-03-22T01:52:11;2.23;;;1.80;;
8399;SDS011;4237;47.030;15.396;2024-03-22T01:54:41;2.57;;;2.30;;
8399;SDS011;4237;47.030;15.396;2024-03-22T01:57:10;2.30;;;2.10;;
8399;SDS011;4237;47.030;15.396;2024-03-22T01:59:38;3.60;;;2.37;;
8399;SDS011;4237;47.030;15.396;2024-03-22T02:02:08;3.20;;;2.37;;
8399;SDS011;4237;47.030;15.396;2024-03-22T02:04:38;2.40;;;2.20;;
8399;SDS011;4237;47.030;15.396;2024-03-22T02:07:06;3.40;;;2.33;;
8399;SDS011;4237;47.030;15.396;2024-03-22T02:09:35;2.70;;;2.30;;
8399;SDS011;4237;47.030;15.396;2024-03-22T02:12:04;2.63;;;2.40;;
8399;SDS011;4237;47.030;15.396;2024-03-22T02:14:32;3.27;;;2.50;;
8399;SDS011;4237;47.030;15.396;2024-03-22T02:17:01;2.87;;;2.53;;
8399;SDS011;4237;47.030;15.396;2024-03-22T02:19:30;2.67;;;2.47;;
8399;SDS011;4237;47.030;15.396;2024-03-22T02:21:58;3.47;;;2.63;;
8399;SDS011;4237;47.030;15.396;2024-03-22T02:24:27;2.90;;;2.53;;
8399;SDS011;4237;47.030;15.396;2024-03-22T02:26:55;3.10;;;2.80;;
8399;SDS011;4237;47.030;15.396;2024-03-22T02:29:24;2.63;;;2.43;;
8399;SDS011;4237;47.030;15.396;2024-03-22T02:31:53;3.27;;;2.30;;
8399;SDS011;4237;47.030;15.396;2024-03-22T02:34:21;2.57;;;2.37;;
8399;SDS011;4237;47.030;15.396;2024-03-22T02:36:50;2.67;;;2.47;;
8399;SDS011;4237;47.030;15.396;2024-03-22T02:39:18;2.63;;;2.37;;
8399;SDS011;4237;47.030;15.396;2024-03-22T02:41:47;2.70;;;2.40;;
8399;SDS011;4237;47.030;15.396;2024-03-22T02:44:15;2.83;;;2.60;;
8399;SDS011;4237;47.030;15.396;2024-03-22T02:46:44;2.60;;;2.40;;
8399;SDS011;4237;47.030;15.396;2024-03-22T02:49:13;3.67;;;2.40;;
8399;SDS011;4237;47.030;15.396;2024-03-22T02:51:41;3.00;;;2.40;;
8399;SDS011;4237;47.030;15.396;2024-03-22T02:54:10;2.37;;;2.17;;
8399;SDS011;4237;47.030;15.396;2024-03-22T02:56:38;3.77;;;2.47;;
8399;SDS011;4237;47.030;15.396;2024-03-22T02:59:07;3.00;;;2.70;;
8399;SDS011;4237;47.030;15.396;2024-03-22T03:01:35;2.30;;;2.10;;
8399;SDS011;4237;47.030;15.396;2024-03-22T03:04:04;2.90;;;2.40;;
8399;SDS011;4237;47.030;15.396;2024-03-22T03:06:32;2.90;;;2.20;;
8399;SDS011;4237;47.030;15.396;2024-03-22T03:09:01;3.83;;;2.60;;
8399;SDS011;4237;47.030;15.396;2024-03-22T03:11:31;2.60;;;2.40;;
8399;SDS011;4237;47.030;15.396;2024-03-22T03:14:00;2.73;;;2.50;;
8399;SDS011;4237;47.030;15.396;2024-03-22T03:16:28;2.50;;;2.30;;
8399;SDS011;4237;47.030;15.396;2024-03-22T03:18:57;3.13;;;2.50;;
8399;SDS011;4237;47.030;15.396;2024-03-22T03:21:25;2.73;;;2.53;;
8399;SDS011;4237;47.030;15.396;2024-03-22T03:23:54;2.30;;;2.10;;
8399;SDS011;4237;47.030;15.396;2024-03-22T03:26:22;3.03;;;2.40;;
8399;SDS011;4237;47.030;15.396;2024-03-22T03:28:51;2.23;;;1.90;;
8399;SDS011;4237;47.030;15.396;2024-03-22T03:31:21;2.43;;;2.23;;
8399;SDS011;4237;47.030;15.396;2024-03-22T03:33:50;2.83;;;2.37;;
8399;SDS011;4237;47.030;15.396;2024-03-22T03:36:18;2.83;;;2.10;;
8399;SDS011;4237;47.030;15.396;2024-03-22T03:38:47;2.53;;;2.13;;
8399;SDS011;4237;47.030;15.396;2024-03-22T03:41:15;2.97;;;2.30;;
8399;SDS011;4237;47.030;15.396;2024-03-22T03:43:44;2.73;;;2.20;;
8399;SDS011;4237;47.030;15.396;2024-03-22T03:46:12;3.03;;;2.20;;
8399;SDS011;4237;47.030;15.396;2024-03-22T03:48:41;2.40;;;2.00;;
8399;SDS011;4237;47.030;15.396;2024-03-22T03:51:09;2.40;;;2.07;;
8399;SDS011;4237;47.030;15.396;2024-03-22T03:53:38;2.43;;;2.23;;
8399;SDS011;4237;47.030;15.396;2024-03-22T03:56:07;2.40;;;2.20;;
8399;SDS011;4237;47.030;15.396;2024-03-22T03:58:35;2.83;;;2.30;;
8399;SDS011;4237;47.030;15.396;2024-03-22T04:01:07;3.67;;;1.90;;
8399;SDS011;4237;47.030;15.396;2024-03-22T04:03:36;3.07;;;2.20;;
8399;SDS011;4237;47.030;15.396;2024-03-22T04:06:04;3.23;;;2.07;;
8399;SDS011;4237;47.030;15.396;2024-03-22T04:08:33;3.17;;;2.20;;
8399;SDS011;4237;47.030;15.396;2024-03-22T04:11:01;2.03;;;1.93;;
8399;SDS011;4237;47.030;15.396;2024-03-22T04:13:30;2.80;;;2.10;;
8399;SDS011;4237;47.030;15.396;2024-03-22T04:16:00;2.30;;;2.10;;
8399;SDS011;4237;47.030;15.396;2024-03-22T04:18:28;2.20;;;2.00;;
8399;SDS011;4237;47.030;15.396;2024-03-22T04:20:57;2.30;;;2.10;;
8399;SDS011;4237;47.030;15.396;2024-03-22T04:23:27;1.70;;;1.60;;
8399;SDS011;4237;47.030;15.396;2024-03-22T04:25:55;2.17;;;1.90;;
8399;SDS011;4237;47.030;15.396;2024-03-22T04:28:27;2.47;;;1.80;;
8399;SDS011;4237;47.030;15.396;2024-03-22T04:31:03;2.77;;;1.70;;
8399;SDS011;4237;47.030;15.396;2024-03-22T04:33:35;2.67;;;2.30;;
8399;SDS011;4237;47.030;15.396;2024-03-22T04:36:04;2.83;;;2.13;;
8399;SDS011;4237;47.030;15.396;2024-03-22T04:38:33;4.60;;;2.23;;
8399;SDS011;4237;47.030;15.396;2024-03-22T04:41:02;5.10;;;2.87;;
8399;SDS011;4237;47.030;15.396;2024-03-22T04:43:30;2.07;;;1.87;;
8399;SDS011;4237;47.030;15.396;2024-03-22T04:45:59;3.60;;;2.07;;
8399;SDS011;4237;47.030;15.396;2024-03-22T04:48:27;1.83;;;1.73;;
8399;SDS011;4237;47.030;15.396;2024-03-22T04:50:56;2.47;;;1.90;;
8399;SDS011;4237;47.030;15.396;2024-03-22T04:53:24;3.83;;;1.97;;
8399;SDS011;4237;47.030;15.396;2024-03-22T04:55:53;2.37;;;2.03;;
8399;SDS011;4237;47.030;15.396;2024-03-22T04:58:21;2.10;;;2.00;;
8399;SDS011;4237;47.030;15.396;2024-03-22T05:00:55;2.63;;;2.07;;
8399;SDS011;4237;47.030;15.396;2024-03-22T05:03:22;2.20;;;1.87;;
8399;SDS011;4237;47.030;15.396;2024-03-22T05:05:50;2.27;;;1.90;;
8399;SDS011;4237;47.030;15.396;2024-03-22T05:08:19;3.83;;;2.23;;
8399;SDS011;4237;47.030;15.396;2024-03-22T05:10:48;2.23;;;1.67;;
8399;SDS011;4237;47.030;15.396;2024-03-22T05:13:16;2.30;;;2.10;;
8399;SDS011;4237;47.030;15.396;2024-03-22T05:15:45;3.70;;;1.80;;
8399;SDS011;4237;47.030;15.396;2024-03-22T05:18:15;2.10;;;1.87;;
8399;SDS011;4237;47.030;15.396;2024-03-22T05:20:43;3.03;;;2.20;;
8399;SDS011;4237;47.030;15.396;2024-03-22T05:23:12;1.80;;;1.70;;
8399;SDS011;4237;47.030;15.396;2024-03-22T05:25:42;2.33;;;1.90;;
8399;SDS011;4237;47.030;15.396;2024-03-22T05:28:11;2.50;;;1.93;;
8399;SDS011;4237;47.030;15.396;2024-03-22T05:30:40;3.87;;;2.00;;
8399;SDS011;4237;47.030;15.396;2024-03-22T05:33:08;3.80;;;2.20;;
8399;SDS011;4237;47.030;15.396;2024-03-22T05:35:37;4.50;;;1.87;;
8399;SDS011;4237;47.030;15.396;2024-03-22T05:38:06;3.77;;;1.83;;
8399;SDS011;4237;47.030;15.396;2024-03-22T05:40:37;2.83;;;1.97;;
8399;SDS011;4237;47.030;15.396;2024-03-22T05:43:06;2.77;;;2.17;;
8399;SDS011;4237;47.030;15.396;2024-03-22T05:45:34;2.10;;;1.90;;
8399;SDS011;4237;47.030;15.396;2024-03-22T05:48:03;3.00;;;2.40;;
8399;SDS011;4237;47.030;15.396;2024-03-22T05:50:32;3.53;;;3.00;;
8399;SDS011;4237;47.030;15.396;2024-03-22T05:53:01;4.87;;;2.27;;
8399;SDS011;4237;47.030;15.396;2024-03-22T05:55:29;2.97;;;2.20;;
8399;SDS011;4237;47.030;15.396;2024-03-22T05:57:59;3.23;;;2.10;;
8399;SDS011;4237;47.030;15.396;2024-03-22T06:00:27;5.10;;;2.43;;
8399;SDS011;4237;47.030;15.396;2024-03-22T06:02:57;2.47;;;2.10;;
8399;SDS011;4237;47.030;15.396;2024-03-22T06:05:26;3.03;;;2.23;;
8399;SDS011;4237;47.030;15.396;2024-03-22T06:07:54;3.40;;;2.27;;
8399;SDS011;4237;47.030;15.396;2024-03-22T06:10:23;3.50;;;2.50;;
8399;SDS011;4237;47.030;15.396;2024-03-22T06:12:51;4.93;;;2.20;;
8399;SDS011;4237;47.030;15.396;2024-03-22T06:15:20;1.97;;;1.87;;
8399;SDS011;4237;47.030;15.396;2024-03-22T06:17:48;3.13;;;2.20;;
8399;SDS011;4237;47.030;15.396;2024-03-22T06:20:18;2.80;;;2.50;;
8399;SDS011;4237;47.030;15.396;2024-03-22T06:22:46;3.30;;;2.43;;
8399;SDS011;4237;47.030;15.396;2024-03-22T06:25:15;2.97;;;2.30;;
8399;SDS011;4237;47.030;15.396;2024-03-22T06:27:43;3.33;;;2.37;;
8399;SDS011;4237;47.030;15.396;2024-03-22T06:30:12;4.33;;;2.43;;
8399;SDS011;4237;47.030;15.396;2024-03-22T06:32:41;3.17;;;2.60;;
8399;SDS011;4237;47.030;15.396;2024-03-22T06:35:09;2.40;;;2.20;;
8399;SDS011;4237;47.030;15.396;2024-03-22T06:37:39;3.60;;;2.70;;
8399;SDS011;4237;47.030;15.396;2024-03-22T06:40:09;3.87;;;2.63;;
8399;SDS011;4237;47.030;15.396;2024-03-22T06:42:38;3.50;;;2.70;;
8399;SDS011;4237;47.030;15.396;2024-03-22T06:45:07;3.10;;;2.30;;
8399;SDS011;4237;47.030;15.396;2024-03-22T06:47:35;3.27;;;2.00;;
8399;SDS011;4237;47.030;15.396;2024-03-22T06:50:04;2.03;;;1.83;;
8399;SDS011;4237;47.030;15.396;2024-03-22T06:52:33;2.67;;;2.10;;
8399;SDS011;4237;47.030;15.396;2024-03-22T06:55:02;1.90;;;1.70;;
8399;SDS011;4237;47.030;15.396;2024-03-22T06:57:31;2.00;;;1.80;;
8399;SDS011;4237;47.030;15.396;2024-03-22T07:00:02;3.40;;;1.90;;
8399;SDS011;4237;47.030;15.396;2024-03-22T07:02:31;2.67;;;1.97;;
8399;SDS011;4237;47.030;15.396;2024-03-22T07:05:00;2.37;;;2.10;;
8399;SDS011;4237;47.030;15.396;2024-03-22T07:07:29;2.63;;;2.00;;
8399;SDS011;4237;47.030;15.396;2024-03-22T07:09:57;4.70;;;2.10;;
8399;SDS011;4237;47.030;15.396;2024-03-22T07:12:26;2.90;;;2.40;;
8399;SDS011;4237;47.030;15.396;2024-03-22T07:14:55;3.83;;;2.17;;
8399;SDS011;4237;47.030;15.396;2024-03-22T07:17:24;2.67;;;2.47;;
8399;SDS011;4237;47.030;15.396;2024-03-22T07:19:53;2.90;;;2.30;;
8399;SDS011;4237;47.030;15.396;2024-03-22T07:22:22;3.17;;;2.20;;
8399;SDS011;4237;47.030;15.396;2024-03-22T07:24:51;2.80;;;2.50;;
8399;SDS011;4237;47.030;15.396;2024-03-22T07:27:19;8.60;;;2.90;;
8399;SDS011;4237;47.030;15.396;2024-03-22T07:29:48;2.50;;;2.20;;
8399;SDS011;4237;47.030;15.396;2024-03-22T07:32:17;2.83;;;2.07;;
8399;SDS011;4237;47.030;15.396;2024-03-22T07:34:46;2.80;;;2.60;;
8399;SDS011;4237;47.030;15.396;2024-03-22T07:37:14;7.28;;;2.30;;
8399;SDS011;4237;47.030;15.396;2024-03-22T07:39:43;2.60;;;2.37;;
8399;SDS011;4237;47.030;15.396;2024-03-22T07:42:11;3.12;;;2.33;;
8399;SDS011;4237;47.030;15.396;2024-03-22T07:44:40;2.33;;;2.12;;
8399;SDS011;4237;47.030;15.396;2024-03-22T07:47:08;2.40;;;2.20;;
8399;SDS011;4237;47.030;15.396;2024-03-22T07:49:37;2.25;;;1.95;;
8399;SDS011;4237;47.030;15.396;2024-03-22T07:52:06;2.30;;;2.10;;
8399;SDS011;4237;47.030;15.396;2024-03-22T07:54:34;2.37;;;2.17;;
8399;SDS011;4237;47.030;15.396;2024-03-22T07:57:03;2.52;;;2.33;;
8399;SDS011;4237;47.030;15.396;2024-03-22T07:59:31;3.80;;;2.00;;
8399;SDS011;4237;47.030;15.396;2024-03-22T08:02:01;2.25;;;2.05;;
8399;SDS011;4237;47.030;15.396;2024-03-22T08:04:30;2.37;;;2.12;;
8399;SDS011;4237;47.030;15.396;2024-03-22T08:06:58;3.17;;;2.00;;
8399;SDS011;4237;47.030;15.396;2024-03-22T08:09:27;1.92;;;1.80;;
8399;SDS011;4237;47.030;15.396;2024-03-22T08:11:56;2.20;;;2.00;;
8399;SDS011;4237;47.030;15.396;2024-03-22T08:14:24;2.65;;;2.42;;
8399;SDS011;4237;47.030;15.396;2024-03-22T08:16:53;2.30;;;2.05;;
8399;SDS011;4237;47.030;15.396;2024-03-22T08:19:21;2.47;;;1.90;;
8399;SDS011;4237;47.030;15.396;2024-03-22T08:21:50;3.95;;;2.37;;
8399;SDS011;4237;47.030;15.396;2024-03-22T08:24:18;2.20;;;2.00;;
8399;SDS011;4237;47.030;15.396;2024-03-22T08:26:47;4.90;;;2.37;;
8399;SDS011;4237;47.030;15.396;2024-03-22T08:32:04;2.58;;;2.20;;
8399;SDS011;4237;47.030;15.396;2024-03-22T08:34:32;2.30;;;2.10;;
8399;SDS011;4237;47.030;15.396;2024-03-22T08:37:01;2.62;;;2.35;;
8399;SDS011;4237;47.030;15.396;2024-03-22T08:39:30;2.65;;;2.27;;
8399;SDS011;4237;47.030;15.396;2024-03-22T08:41:59;2.55;;;2.20;;
8399;SDS011;4237;47.030;15.396;2024-03-22T08:44:28;2.92;;;2.20;;
8399;SDS011;4237;47.030;15.396;2024-03-22T08:46:57;2.62;;;2.20;;
8399;SDS011;4237;47.030;15.396;2024-03-22T08:49:25;2.90;;;2.27;;
8399;SDS011;4237;47.030;15.396;2024-03-22T08:51:54;4.28;;;2.00;;
8399;SDS011;4237;47.030;15.396;2024-03-22T08:54:23;2.20;;;2.00;;
8399;SDS011;4237;47.030;15.396;2024-03-22T08:56:51;2.85;;;2.35;;
8399;SDS011;4237;47.030;15.396;2024-03-22T08:59:21;2.20;;;2.00;;
8399;SDS011;4237;47.030;15.396;2024-03-22T09:01:51;2.22;;;1.87;;
8399;SDS011;4237;47.030;15.396;2024-03-22T09:04:20;2.60;;;2.15;;
8399;SDS011;4237;47.030;15.396;2024-03-22T09:06:48;3.92;;;2.20;;
8399;SDS011;4237;47.030;15.396;2024-03-22T09:09:17;3.05;;;2.30;;
8399;SDS011;4237;47.030;15.396;2024-03-22T09:11:45;2.50;;;2.30;;
8399;SDS011;4237;47.030;15.396;2024-03-22T09:14:14;3.92;;;2.22;;
8399;SDS011;4237;47.030;15.396;2024-03-22T09:16:43;3.60;;;2.20;;
8399;SDS011;4237;47.030;15.396;2024-03-22T09:19:12;2.47;;;2.27;;
8399;SDS011;4237;47.030;15.396;2024-03-22T09:21:41;2.75;;;2.47;;
8399;SDS011;4237;47.030;15.396;2024-03-22T09:24:10;2.30;;;2.10;;
8399;SDS011;4237;47.030;15.396;2024-03-22T09:26:38;3.42;;;2.58;;
8399;SDS011;4237;47.030;15.396;2024-03-22T09:29:08;2.30;;;2.08;;
8399;SDS011;4237;47.030;15.396;2024-03-22T09:31:36;2.40;;;2.20;;
8399;SDS011;4237;47.030;15.396;2024-03-22T09:34:05;2.65;;;1.90;;
8399;SDS011;4237;47.030;15.396;2024-03-22T09:36:33;2.83;;;1.80;;
8399;SDS011;4237;47.030;15.396;2024-03-22T09:39:02;3.08;;;2.20;;
8399;SDS011;4237;47.030;15.396;2024-03-22T09:41:31;2.98;;;1.87;;
8399;SDS011;4237;47.030;15.396;2024-03-22T09:44:00;1.95;;;1.72;;
8399;SDS011;4237;47.030;15.396;2024-03-22T09:46:31;3.05;;;2.20;;
8399;SDS011;4237;47.030;15.396;2024-03-22T09:49:01;2.80;;;2.10;;
8399;SDS011;4237;47.030;15.396;2024-03-22T09:51:30;3.83;;;1.90;;
8399;SDS011;4237;47.030;15.396;2024-03-22T09:54:00;3.63;;;2.00;;
8399;SDS011;4237;47.030;15.396;2024-03-22T09:56:30;3.07;;;1.97;;
8399;SDS011;4237;47.030;15.396;2024-03-22T09:58:59;2.80;;;2.20;;
8399;SDS011;4237;47.030;15.396;2024-03-22T10:01:27;2.63;;;2.07;;
8399;SDS011;4237;47.030;15.396;2024-03-22T10:03:58;2.50;;;2.00;;
8399;SDS011;4237;47.030;15.396;2024-03-22T10:06:27;2.33;;;1.80;;
8399;SDS011;4237;47.030;15.396;2024-03-22T10:08:58;2.33;;;1.77;;
8399;SDS011;4237;47.030;15.396;2024-03-22T10:11:27;1.70;;;1.60;;
8399;SDS011;4237;47.030;15.396;2024-03-22T10:13:56;3.73;;;1.90;;
8399;SDS011;4237;47.030;15.396;2024-03-22T10:16:24;2.07;;;1.80;;
8399;SDS011;4237;47.030;15.396;2024-03-22T10:18:54;3.07;;;1.80;;
8399;SDS011;4237;47.030;15.396;2024-03-22T10:21:23;2.87;;;1.60;;
8399;SDS011;4237;47.030;15.396;2024-03-22T10:23:53;2.55;;;1.65;;
8399;SDS011;4237;47.030;15.396;2024-03-22T10:26:21;3.25;;;1.80;;
8399;SDS011;4237;47.030;15.396;2024-03-22T10:28:50;2.67;;;1.80;;
8399;SDS011;4237;47.030;15.396;2024-03-22T10:31:18;2.22;;;1.70;;
8399;SDS011;4237;47.030;15.396;2024-03-22T10:33:48;2.40;;;1.60;;
8399;SDS011;4237;47.030;15.396;2024-03-22T10:36:18;2.58;;;2.00;;
8399;SDS011;4237;47.030;15.396;2024-03-22T10:38:47;2.33;;;1.98;;
8399;SDS011;4237;47.030;15.396;2024-03-22T10:41:18;2.05;;;1.57;;
8399;SDS011;4237;47.030;15.396;2024-03-22T10:43:47;3.98;;;1.50;;
8399;SDS011;4237;47.030;15.396;2024-03-22T10:46:15;1.70;;;1.50;;
8399;SDS011;4237;47.030;15.396;2024-03-22T10:48:46;2.02;;;1.60;;
8399;SDS011;4237;47.030;15.396;2024-03-22T10:51:15;2.00;;;1.32;;
8399;SDS011;4237;47.030;15.396;2024-03-22T10:53:45;1.90;;;1.80;;
8399;SDS011;4237;47.030;15.396;2024-03-22T10:56:14;2.35;;;1.40;;
8399;SDS011;4237;47.030;15.396;2024-03-22T10:58:45;2.87;;;1.77;;
8399;SDS011;4237;47.030;15.396;2024-03-22T11:01:23;2.95;;;1.52;;
8399;SDS011;4237;47.030;15.396;2024-03-22T11:04:08;1.87;;;1.57;;
8399;SDS011;4237;47.030;15.396;2024-03-22T11:06:37;2.65;;;1.75;;
8399;SDS011;4237;47.030;15.396;2024-03-22T11:09:06;2.83;;;1.80;;
8399;SDS011;4237;47.030;15.396;2024-03-22T11:11:37;2.40;;;1.60;;
8399;SDS011;4237;47.030;15.396;2024-03-22T11:14:07;2.00;;;1.72;;
8399;SDS011;4237;47.030;15.396;2024-03-22T11:16:36;1.80;;;1.70;;
8399;SDS011;4237;47.030;15.396;2024-03-22T11:19:04;3.52;;;1.30;;
8399;SDS011;4237;47.030;15.396;2024-03-22T11:21:33;2.52;;;1.67;;
8399;SDS011;4237;47.030;15.396;2024-03-22T11:24:01;1.60;;;1.50;;
8399;SDS011;4237;47.030;15.396;2024-03-22T11:26:30;1.40;;;1.30;;
8399;SDS011;4237;47.030;15.396;2024-03-22T11:28:59;1.80;;;1.50;;
8399;SDS011;4237;47.030;15.396;2024-03-22T11:31:28;3.33;;;1.20;;
8399;SDS011;4237;47.030;15.396;2024-03-22T11:33:57;1.60;;;1.50;;
8399;SDS011;4237;47.030;15.396;2024-03-22T11:36:25;2.62;;;1.47;;
8399;SDS011;4237;47.030;15.396;2024-03-22T11:38:54;2.47;;;1.32;;
8399;SDS011;4237;47.030;15.396;2024-03-22T11:41:27;1.93;;;1.80;;
8399;SDS011;4237;47.030;15.396;2024-03-22T11:43:57;1.80;;;1.30;;
8399;SDS011;4237;47.030;15.396;2024-03-22T11:46:27;2.10;;;1.50;;
8399;SDS011;4237;47.030;15.396;2024-03-22T11:48:56;3.60;;;1.60;;
8399;SDS011;4237;47.030;15.396;2024-03-22T11:51:26;3.13;;;1.50;;
8399;SDS011;4237;47.030;15.396;2024-03-22T11:53:55;2.30;;;1.70;;
8399;SDS011;4237;47.030;15.396;2024-03-22T11:56:24;2.10;;;1.50;;
8399;SDS011;4237;47.030;15.396;2024-03-22T11:58:59;2.40;;;1.30;;
8399;SDS011;4237;47.030;15.396;2024-03-22T12:01:29;1.40;;;1.23;;
8399;SDS011;4237;47.030;15.396;2024-03-22T12:03:58;2.87;;;1.40;;
8399;SDS011;4237;47.030;15.396;2024-03-22T12:06:27;1.55;;;1.20;;
8399;SDS011;4237;47.030;15.396;2024-03-22T12:08:55;2.15;;;1.35;;
8399;SDS011;4237;47.030;15.396;2024-03-22T12:11:24;1.85;;;1.30;;
8399;SDS011;4237;47.030;15.396;2024-03-22T12:13:53;1.65;;;1.52;;
8399;SDS011;4237;47.030;15.396;2024-03-22T12:16:21;2.95;;;1.60;;
8399;SDS011;4237;47.030;15.396;2024-03-22T12:18:50;1.60;;;1.17;;
8399;SDS011;4237;47.030;15.396;2024-03-22T12:21:18;1.35;;;1.25;;
8399;SDS011;4237;47.030;15.396;2024-03-22T12:23:47;4.70;;;1.37;;
8399;SDS011;4237;47.030;15.396;2024-03-22T12:26:15;1.62;;;1.52;;
8399;SDS011;4237;47.030;15.396;2024-03-22T12:28:44;2.30;;;1.40;;
8399;SDS011;4237;47.030;15.396;2024-03-22T12:31:13;1.80;;;1.50;;
8399;SDS011;4237;47.030;15.396;2024-03-22T12:33:43;1.42;;;1.30;;
8399;SDS011;4237;47.030;15.396;2024-03-22T12:36:12;2.15;;;1.40;;
8399;SDS011;4237;47.030;15.396;2024-03-22T12:38:41;2.55;;;1.40;;
8399;SDS011;4237;47.030;15.396;2024-03-22T12:41:09;3.25;;;1.42;;
8399;SDS011;4237;47.030;15.396;2024-03-22T12:43:38;1.70;;;1.60;;
8399;SDS011;4237;47.030;15.396;2024-03-22T12:46:08;2.95;;;1.50;;
8399;SDS011;4237;47.030;15.396;2024-03-22T12:48:37;2.05;;;1.30;;
8399;SDS011;4237;47.030;15.396;2024-03-22T12:51:06;3.00;;;1.60;;
8399;SDS011;4237;47.030;15.396;2024-03-22T12:53:35;1.67;;;1.57;;
8399;SDS011;4237;47.030;15.396;2024-03-22T12:56:04;2.73;;;1.60;;
8399;SDS011;4237;47.030;15.396;2024-03-22T12:58:32;2.10;;;1.50;;
8399;SDS011;4237;47.030;15.396;2024-03-22T13:01:01;2.47;;;1.60;;
8399;SDS011;4237;47.030;15.396;2024-03-22T13:03:30;1.90;;;1.43;;
8399;SDS011;4237;47.030;15.396;2024-03-22T13:05:59;4.20;;;1.80;;
8399;SDS011;4237;47.030;15.396;2024-03-22T13:08:28;2.70;;;1.77;;
8399;SDS011;4237;47.030;15.396;2024-03-22T13:10:56;3.20;;;1.50;;
8399;SDS011;4237;47.030;15.396;2024-03-22T13:13:25;1.90;;;1.67;;
8399;SDS011;4237;47.030;15.396;2024-03-22T13:15:56;3.10;;;1.60;;
8399;SDS011;4237;47.030;15.396;2024-03-22T13:18:28;2.10;;;1.43;;
8399;SDS011;4237;47.030;15.396;2024-03-22T13:20:57;5.77;;;1.53;;
8399;SDS011;4237;47.030;15.396;2024-03-22T13:23:26;3.70;;;1.63;;
8399;SDS011;4237;47.030;15.396;2024-03-22T13:25:55;1.60;;;1.40;;
8399;SDS011;4237;47.030;15.396;2024-03-22T13:28:25;4.67;;;1.53;;
8399;SDS011;4237;47.030;15.396;2024-03-22T13:31:00;2.90;;;1.70;;
8399;SDS011;4237;47.030;15.396;2024-03-22T13:33:35;3.30;;;1.70;;
8399;SDS011;4237;47.030;15.396;2024-03-22T13:36:03;3.07;;;1.70;;
8399;SDS011;4237;47.030;15.396;2024-03-22T13:38:32;2.53;;;1.70;;
8399;SDS011;4237;47.030;15.396;2024-03-22T13:41:01;2.77;;;1.57;;
8399;SDS011;4237;47.030;15.396;2024-03-22T13:43:30;1.70;;;1.60;;
8399;SDS011;4237;47.030;15.396;2024-03-22T13:46:00;3.00;;;1.60;;
8399;SDS011;4237;47.030;15.396;2024-03-22T13:48:28;1.87;;;1.40;;
8399;SDS011;4237;47.030;15.396;2024-03-22T13:50:57;2.97;;;1.47;;
8399;SDS011;4237;47.030;15.396;2024-03-22T13:53:26;2.60;;;1.30;;
8399;SDS011;4237;47.030;15.396;2024-03-22T13:55:55;1.63;;;1.40;;
8399;SDS011;4237;47.030;15.396;2024-03-22T13:58:23;1.80;;;1.40;;
8399;SDS011;4237;47.030;15.396;2024-03-22T14:00:52;1.57;;;1.37;;
8399;SDS011;4237;47.030;15.396;2024-03-22T14:03:21;1.40;;;1.30;;
8399;SDS011;4237;47.030;15.396;2024-03-22T14:05:49;2.10;;;1.33;;
8399;SDS011;4237;47.030;15.396;2024-03-22T14:08:18;1.83;;;1.40;;
8399;SDS011;4237;47.030;15.396;2024-03-22T14:10:46;2.03;;;1.47;;
8399;SDS011;4237;47.030;15.396;2024-03-22T14:13:15;2.00;;;1.60;;
8399;SDS011;4237;47.030;15.396;2024-03-22T14:15:44;1.63;;;1.53;;
8399;SDS011;4237;47.030;15.396;2024-03-22T14:18:12;1.63;;;1.40;;
8399;SDS011;4237;47.030;15.396;2024-03-22T14:20:41;1.53;;;1.27;;
8399;SDS011;4237;47.030;15.396;2024-03-22T14:23:09;1.97;;;1.37;;
8399;SDS011;4237;47.030;15.396;2024-03-22T14:25:38;1.63;;;1.50;;
8399;SDS011;4237;47.030;15.396;2024-03-22T14:28:07;1.53;;;1.43;;
8399;SDS011;4237;47.030;15.396;2024-03-22T14:30:35;3.70;;;1.50;;
8399;SDS011;4237;47.030;15.396;2024-03-22T14:33:05;2.30;;;1.60;;
8399;SDS011;4237;47.030;15.396;2024-03-22T14:35:33;2.07;;;1.40;;
8399;SDS011;4237;47.030;15.396;2024-03-22T14:38:02;1.70;;;1.60;;
8399;SDS011;4237;47.030;15.396;2024-03-22T14:40:31;2.30;;;1.60;;
8399;SDS011;4237;47.030;15.396;2024-03-22T14:43:01;2.73;;;1.47;;
8399;SDS011;4237;47.030;15.396;2024-03-22T14:45:30;1.70;;;1.33;;
8399;SDS011;4237;47.030;15.396;2024-03-22T14:47:59;1.90;;;1.40;;
8399;SDS011;4237;47.030;15.396;2024-03-22T14:50:29;1.80;;;1.30;;
8399;SDS011;4237;47.030;15.396;2024-03-22T14:52:59;4.53;;;1.53;;
8399;SDS011;4237;47.030;15.396;2024-03-22T14:55:27;1.50;;;1.40;;
8399;SDS011;4237;47.030;15.396;2024-03-22T14:57:56;1.83;;;1.30;;
8399;SDS011;4237;47.030;15.396;2024-03-22T15:00:25;1.83;;;1.50;;
8399;SDS011;4237;47.030;15.396;2024-03-22T15:02:53;2.73;;;1.63;;
8399;SDS011;4237;47.030;15.396;2024-03-22T15:05:22;2.87;;;1.47;;
8399;SDS011;4237;47.030;15.396;2024-03-22T15:07:50;1.50;;;1.30;;
8399;SDS011;4237;47.030;15.396;2024-03-22T15:10:19;1.93;;;1.20;;
8399;SDS011;4237;47.030;15.396;2024-03-22T15:12:47;1.73;;;1.47;;